Time;durP1;ratioP1;P1;durP2;ratioP2;P2;SDS_P1;SDS_P2;PMS_P1;PMS_P2;Temp;Humidity;BMP_temperature;BMP_pressure;BME280_temperature;BME280_humidity;BME280_pressure;Samples;Min_cycle;Max_cycle;Signal;HPM_P1;HPM_P2
2023/09/17 00:01:05;;;;;;;;;;;15.30;99.90;;;;;;4941161;28;19962;-76
2023/09/17 00:03:32;;;;;;;;;;;15.30;99.90;;;;;;4938819;28;19941;-77
2023/09/17 00:05:58;;;;;;;;;;;15.30;99.90;;;;;;4938646;28;19946;-75
2023/09/17 00:08:24;;;;;;;;;;;15.30;99.90;;;;;;4937267;28;19938;-77
2023/09/17 00:10:49;;;;;;;;;;;15.30;99.90;;;;;;4932004;28;19973;-78
2023/09/17 00:13:15;;;;;;;;;;;15.30;99.90;;;;;;4935009;28;20485;-77
2023/09/17 00:15:40;;;;;;;;;;;15.20;99.90;;;;;;4939657;28;20443;-77
2023/09/17 00:18:06;;;;;;;;;;;15.30;99.90;;;;;;4934297;28;20631;-78
2023/09/17 00:20:32;;;;;;;;;;;15.30;99.90;;;;;;4940612;28;20684;-77
2023/09/17 00:22:59;;;;;;;;;;;15.30;99.90;;;;;;4933784;28;20002;-78
2023/09/17 00:25:25;;;;;;;;;;;15.30;99.90;;;;;;4937063;28;19936;-77
2023/09/17 00:27:51;;;;;;;;;;;15.20;99.90;;;;;;4937105;28;19939;-76
2023/09/17 00:30:17;;;;;;;;;;;15.10;99.90;;;;;;4937083;28;20398;-77
2023/09/17 00:32:42;;;;;;;;;;;15.00;99.90;;;;;;4937233;28;19952;-77
2023/09/17 00:35:08;;;;;;;;;;;15.00;99.90;;;;;;4933935;28;20831;-77
2023/09/17 00:37:33;;;;;;;;;;;15.10;99.90;;;;;;4932549;28;20202;-77
2023/09/17 00:39:59;;;;;;;;;;;15.20;99.90;;;;;;4936108;28;19934;-77
2023/09/17 00:42:24;;;;;;;;;;;15.20;99.90;;;;;;4935517;28;19938;-76
2023/09/17 00:44:50;;;;;;;;;;;15.20;99.90;;;;;;4935353;28;20549;-77
2023/09/17 00:47:15;;;;;;;;;;;15.20;99.90;;;;;;4936477;28;19945;-78
2023/09/17 00:49:41;;;;;;;;;;;15.10;99.90;;;;;;4940339;28;19997;-78
2023/09/17 00:52:15;;;;;;;;;;;15.10;99.90;;;;;;4928956;28;19937;-78
2023/09/17 00:54:41;;;;;;;;;;;15.10;99.90;;;;;;4931084;28;19987;-77
2023/09/17 00:57:06;;;;;;;;;;;15.10;99.90;;;;;;4927960;28;19969;-76
2023/09/17 00:59:32;;;;;;;;;;;15.10;99.90;;;;;;4932210;28;19938;-77
2023/09/17 01:01:57;;;;;;;;;;;15.10;99.90;;;;;;4933972;28;19967;-77
2023/09/17 01:04:24;;;;;;;;;;;15.00;99.90;;;;;;4934432;28;19978;-77
2023/09/17 01:06:52;;;;;;;;;;;14.90;99.90;;;;;;4938575;28;19946;-77
2023/09/17 01:09:18;;;;;;;;;;;14.90;99.90;;;;;;4931289;28;19939;-76
2023/09/17 01:11:43;;;;;;;;;;;14.90;99.90;;;;;;4923317;28;19962;-76
2023/09/17 01:14:12;;;;;;;;;;;14.90;99.90;;;;;;4922424;28;19939;-76
2023/09/17 01:16:39;;;;;;;;;;;14.90;99.90;;;;;;4929785;28;19998;-76
2023/09/17 01:19:05;;;;;;;;;;;14.90;99.90;;;;;;4933756;28;20020;-76
2023/09/17 01:21:45;;;;;;;;;;;15.00;99.90;;;;;;4928189;28;19938;-82
2023/09/17 01:24:43;;;;;;;;;;;14.90;99.90;;;;;;4929829;28;20007;-77
2023/09/17 01:27:09;;;;;;;;;;;15.00;99.90;;;;;;4890909;28;19973;-80
2023/09/17 01:29:37;;;;;;;;;;;15.00;99.90;;;;;;4930994;28;20033;-79
2023/09/17 01:32:04;;;;;;;;;;;15.00;99.90;;;;;;4929787;28;20018;-79
2023/09/17 01:34:31;;;;;;;;;;;14.90;99.90;;;;;;4931835;28;20040;-79
2023/09/17 01:36:57;;;;;;;;;;;14.80;99.90;;;;;;4931048;28;19965;-79
2023/09/17 01:39:26;;;;;;;;;;;14.70;99.90;;;;;;4934721;28;20446;-80
2023/09/17 01:41:51;;;;;;;;;;;14.70;99.90;;;;;;4932254;28;19957;-80
2023/09/17 01:44:18;;;;;;;;;;;14.70;99.90;;;;;;4929895;28;20059;-79
2023/09/17 01:46:44;;;;;;;;;;;14.70;99.90;;;;;;4928281;28;19936;-79
2023/09/17 01:49:10;;;;;;;;;;;14.70;99.90;;;;;;4931684;28;20703;-80
2023/09/17 01:51:37;;;;;;;;;;;14.60;99.90;;;;;;4934837;28;19935;-79
2023/09/17 01:54:03;;;;;;;;;;;14.60;99.90;;;;;;4931621;28;19938;-79
2023/09/17 01:56:28;;;;;;;;;;;14.60;99.90;;;;;;4932711;28;20044;-79
2023/09/17 01:58:54;;;;;;;;;;;14.50;99.90;;;;;;4933359;28;19936;-79
2023/09/17 02:01:19;;;;;;;;;;;14.50;99.90;;;;;;4937138;28;19995;-79
2023/09/17 02:03:45;;;;;;;;;;;14.50;99.90;;;;;;4919023;28;19940;-78
2023/09/17 02:06:10;;;;;;;;;;;14.50;99.90;;;;;;4939628;28;19961;-77
2023/09/17 02:08:36;;;;;;;;;;;14.60;99.90;;;;;;4937443;28;20433;-77
2023/09/17 02:11:04;;;;;;;;;;;14.60;99.90;;;;;;4931770;28;19934;-78
2023/09/17 02:13:30;;;;;;;;;;;14.60;99.90;;;;;;4938922;28;19931;-77
2023/09/17 02:15:55;;;;;;;;;;;14.60;99.90;;;;;;4938185;28;20313;-77
2023/09/17 02:18:22;;;;;;;;;;;14.60;99.90;;;;;;4945247;28;20327;-77
2023/09/17 02:20:47;;;;;;;;;;;14.50;99.90;;;;;;4926917;28;20018;-77
2023/09/17 02:23:13;;;;;;;;;;;14.40;99.90;;;;;;4932195;28;19935;-77
2023/09/17 02:25:38;;;;;;;;;;;14.40;99.90;;;;;;4934010;28;19942;-77
2023/09/17 02:28:04;;;;;;;;;;;14.40;99.90;;;;;;4936136;28;19936;-77
2023/09/17 02:30:30;;;;;;;;;;;14.30;99.90;;;;;;4931952;28;20047;-78
2023/09/17 02:32:56;;;;;;;;;;;14.30;99.90;;;;;;4931997;28;19945;-77
2023/09/17 02:35:21;;;;;;;;;;;14.20;99.90;;;;;;4937562;28;20211;-77
2023/09/17 02:37:47;;;;;;;;;;;14.20;99.90;;;;;;4934346;28;19942;-77
2023/09/17 02:40:12;;;;;;;;;;;14.20;99.90;;;;;;4934568;28;20903;-77
2023/09/17 02:42:39;;;;;;;;;;;14.20;99.90;;;;;;4932955;28;19935;-79
2023/09/17 02:45:05;;;;;;;;;;;14.20;99.90;;;;;;4935750;28;20014;-79
2023/09/17 02:47:33;;;;;;;;;;;14.30;99.90;;;;;;4937607;28;20013;-79
2023/09/17 02:49:59;;;;;;;;;;;14.30;99.90;;;;;;4934772;28;20019;-79
2023/09/17 02:52:24;;;;;;;;;;;14.40;99.90;;;;;;4915095;28;19934;-80
2023/09/17 02:54:50;;;;;;;;;;;14.40;99.90;;;;;;4932053;28;19945;-79
2023/09/17 02:57:15;;;;;;;;;;;14.50;99.90;;;;;;4935949;28;19961;-79
2023/09/17 02:59:41;;;;;;;;;;;14.50;99.90;;;;;;4936956;28;19938;-79
2023/09/17 03:02:06;;;;;;;;;;;14.50;99.90;;;;;;4933702;28;20497;-79
2023/09/17 03:04:33;;;;;;;;;;;14.40;99.90;;;;;;4936241;28;19936;-79
2023/09/17 03:06:59;;;;;;;;;;;14.30;99.90;;;;;;4934814;28;19947;-79
2023/09/17 03:09:25;;;;;;;;;;;14.10;99.90;;;;;;4937637;28;20023;-78
2023/09/17 03:11:50;;;;;;;;;;;14.10;99.90;;;;;;4930486;28;20355;-79
2023/09/17 03:14:16;;;;;;;;;;;14.00;99.90;;;;;;4929576;28;20080;-79
2023/09/17 03:16:41;;;;;;;;;;;14.00;99.90;;;;;;4932418;28;19959;-79
2023/09/17 03:19:07;;;;;;;;;;;13.90;99.90;;;;;;4932783;28;20495;-77
2023/09/17 03:21:40;;;;;;;;;;;13.90;99.90;;;;;;4934891;28;19988;-76
2023/09/17 03:24:06;;;;;;;;;;;13.90;99.90;;;;;;4935932;28;20027;-77
2023/09/17 03:26:31;;;;;;;;;;;13.90;99.90;;;;;;4927595;28;21449;-77
2023/09/17 03:28:57;;;;;;;;;;;13.90;99.90;;;;;;4933377;28;19941;-77
2023/09/17 03:31:24;;;;;;;;;;;13.90;99.90;;;;;;4933616;28;19936;-77
2023/09/17 03:33:49;;;;;;;;;;;13.90;99.90;;;;;;4938280;28;20412;-77
2023/09/17 03:36:15;;;;;;;;;;;13.80;99.90;;;;;;4933887;28;19954;-77
2023/09/17 03:38:41;;;;;;;;;;;13.80;99.90;;;;;;4936652;28;20581;-77
2023/09/17 03:41:06;;;;;;;;;;;13.70;99.90;;;;;;4936380;28;20139;-77
2023/09/17 03:43:33;;;;;;;;;;;13.70;99.90;;;;;;4933996;28;20443;-77
2023/09/17 03:45:59;;;;;;;;;;;13.60;99.90;;;;;;4936309;28;19930;-77
2023/09/17 03:48:25;;;;;;;;;;;13.60;99.90;;;;;;4932663;28;20519;-77
2023/09/17 03:50:50;;;;;;;;;;;13.60;99.90;;;;;;4935652;28;19941;-76
2023/09/17 03:53:16;;;;;;;;;;;13.60;99.90;;;;;;4937881;28;20297;-77
2023/09/17 03:55:42;;;;;;;;;;;13.60;99.90;;;;;;4939170;28;19961;-77
2023/09/17 03:58:08;;;;;;;;;;;13.60;99.90;;;;;;4933792;28;19947;-77
2023/09/17 04:00:34;;;;;;;;;;;13.60;99.90;;;;;;4932056;28;20059;-77
2023/09/17 04:03:00;;;;;;;;;;;13.70;99.90;;;;;;4937142;28;20721;-77
2023/09/17 04:05:25;;;;;;;;;;;13.70;99.90;;;;;;4939021;28;20125;-77
2023/09/17 04:07:51;;;;;;;;;;;13.70;99.90;;;;;;4935550;28;20029;-77
2023/09/17 04:10:17;;;;;;;;;;;13.70;99.90;;;;;;4937765;28;20816;-76
2023/09/17 04:12:43;;;;;;;;;;;13.70;99.90;;;;;;4932981;28;20380;-77
2023/09/17 04:15:13;;;;;;;;;;;13.70;99.90;;;;;;4930700;28;19991;-79
2023/09/17 04:17:39;;;;;;;;;;;13.70;99.90;;;;;;4935515;28;20407;-80
2023/09/17 04:20:09;;;;;;;;;;;13.70;99.90;;;;;;4935643;28;19941;-79
2023/09/17 04:22:35;;;;;;;;;;;13.70;99.90;;;;;;4938850;28;20031;-79
2023/09/17 04:25:00;;;;;;;;;;;13.80;99.90;;;;;;4939158;28;19970;-79
2023/09/17 04:27:26;;;;;;;;;;;13.90;99.90;;;;;;4948493;28;20659;-79
2023/09/17 04:29:52;;;;;;;;;;;13.90;99.90;;;;;;4943327;28;20062;-79
2023/09/17 04:32:17;;;;;;;;;;;13.80;99.90;;;;;;4934538;28;20053;-79
2023/09/17 04:34:43;;;;;;;;;;;13.80;99.90;;;;;;4935329;28;21246;-79
2023/09/17 04:37:10;;;;;;;;;;;13.80;99.90;;;;;;4934496;28;19964;-78
2023/09/17 04:39:35;;;;;;;;;;;13.70;99.90;;;;;;4936421;28;19960;-79
2023/09/17 04:42:01;;;;;;;;;;;13.80;99.90;;;;;;4936090;28;20479;-79
2023/09/17 04:44:28;;;;;;;;;;;13.80;99.90;;;;;;4938515;28;19989;-79
2023/09/17 04:46:54;;;;;;;;;;;13.80;99.90;;;;;;4935646;28;20155;-80
2023/09/17 04:49:19;;;;;;;;;;;13.90;99.90;;;;;;4936587;28;20560;-79
2023/09/17 04:51:45;;;;;;;;;;;13.90;99.90;;;;;;4938033;28;19928;-78
2023/09/17 04:54:10;;;;;;;;;;;13.90;99.90;;;;;;4934376;28;20000;-78
2023/09/17 04:56:37;;;;;;;;;;;13.90;99.90;;;;;;4934967;28;19994;-79
2023/09/17 04:59:03;;;;;;;;;;;13.80;99.90;;;;;;4933333;28;19930;-78
2023/09/17 05:01:29;;;;;;;;;;;13.70;99.90;;;;;;4934558;28;19978;-78
2023/09/17 05:03:54;;;;;;;;;;;13.80;99.90;;;;;;4934230;28;19937;-78
2023/09/17 05:06:20;;;;;;;;;;;13.80;99.90;;;;;;4937465;28;19930;-78
2023/09/17 05:08:46;;;;;;;;;;;13.80;99.90;;;;;;4933526;28;19930;-76
2023/09/17 05:11:11;;;;;;;;;;;13.90;99.90;;;;;;4930888;28;20712;-77
2023/09/17 05:13:37;;;;;;;;;;;13.90;99.90;;;;;;4935579;28;20150;-77
2023/09/17 05:16:03;;;;;;;;;;;14.00;99.90;;;;;;4937947;28;19962;-77
2023/09/17 05:18:29;;;;;;;;;;;14.10;99.90;;;;;;4936072;28;19937;-77
2023/09/17 05:20:54;;;;;;;;;;;14.20;99.90;;;;;;4935980;28;20302;-77
2023/09/17 05:23:20;;;;;;;;;;;14.20;99.90;;;;;;4940557;28;20385;-76
2023/09/17 05:25:46;;;;;;;;;;;14.30;99.90;;;;;;4932987;28;20491;-77
2023/09/17 05:28:12;;;;;;;;;;;14.40;99.90;;;;;;4935196;28;19937;-76
2023/09/17 05:30:37;;;;;;;;;;;14.60;99.90;;;;;;4933589;28;20002;-79
2023/09/17 05:33:06;;;;;;;;;;;14.70;99.90;;;;;;4934927;28;20385;-78
2023/09/17 05:35:32;;;;;;;;;;;14.70;99.90;;;;;;4937287;28;19990;-78
2023/09/17 05:37:58;;;;;;;;;;;14.90;99.90;;;;;;4933921;28;19934;-79
2023/09/17 05:40:23;;;;;;;;;;;15.00;99.90;;;;;;4932396;28;20566;-79
2023/09/17 05:42:49;;;;;;;;;;;15.30;99.90;;;;;;4938073;28;19929;-78
2023/09/17 05:45:14;;;;;;;;;;;15.40;99.90;;;;;;4929932;28;20380;-79
2023/09/17 05:47:41;;;;;;;;;;;15.50;99.90;;;;;;4953106;28;19927;-74
2023/09/17 05:50:07;;;;;;;;;;;15.70;99.90;;;;;;4936242;28;19923;-74
2023/09/17 05:52:33;;;;;;;;;;;15.90;99.90;;;;;;4932857;28;19931;-75
2023/09/17 05:55:00;;;;;;;;;;;16.00;99.90;;;;;;4935523;28;19936;-74
2023/09/17 05:57:26;;;;;;;;;;;16.30;99.90;;;;;;4935082;28;19958;-74
2023/09/17 05:59:51;;;;;;;;;;;16.40;99.90;;;;;;4937729;28;19997;-72
2023/09/17 06:02:17;;;;;;;;;;;16.60;99.90;;;;;;4932518;28;20293;-73
2023/09/17 06:04:43;;;;;;;;;;;16.70;99.90;;;;;;4934791;28;20655;-73
2023/09/17 06:07:08;;;;;;;;;;;16.90;99.90;;;;;;4938764;28;20449;-73
2023/09/17 06:09:34;;;;;;;;;;;16.90;99.90;;;;;;4932033;28;19939;-73
2023/09/17 06:11:59;;;;;;;;;;;17.00;99.90;;;;;;4936268;28;19923;-74
2023/09/17 06:14:25;;;;;;;;;;;17.00;99.90;;;;;;4938489;28;19955;-75
2023/09/17 06:16:50;;;;;;;;;;;17.10;99.90;;;;;;4929949;28;19950;-74
2023/09/17 06:19:16;;;;;;;;;;;17.30;99.90;;;;;;4934656;28;19945;-74
2023/09/17 06:21:42;;;;;;;;;;;17.50;99.90;;;;;;4932095;28;19935;-76
2023/09/17 06:24:07;;;;;;;;;;;17.70;99.90;;;;;;4935061;28;19945;-84
2023/09/17 06:26:33;;;;;;;;;;;17.80;99.90;;;;;;4935204;28;20081;-84
2023/09/17 06:28:59;;;;;;;;;;;18.00;99.90;;;;;;4935640;28;20430;-84
2023/09/17 06:31:25;;;;;;;;;;;18.10;99.90;;;;;;4931442;28;20785;-88
2023/09/17 06:33:51;;;;;;;;;;;18.20;99.90;;;;;;4930276;28;19998;-87
2023/09/17 06:36:16;;;;;;;;;;;18.30;99.90;;;;;;4922921;29;19960;-86
2023/09/17 06:38:42;;;;;;;;;;;18.40;99.90;;;;;;4935375;28;19993;-79
2023/09/17 06:41:07;;;;;;;;;;;18.50;99.90;;;;;;4935083;28;20455;-78
2023/09/17 06:43:33;;;;;;;;;;;18.70;99.90;;;;;;4939029;28;20414;-79
2023/09/17 06:45:59;;;;;;;;;;;18.90;99.90;;;;;;4928786;28;19948;-80
2023/09/17 06:48:25;;;;;;;;;;;19.10;99.90;;;;;;4930642;28;19980;-79
2023/09/17 06:50:51;;;;;;;;;;;19.20;99.90;;;;;;4938269;28;20382;-68
2023/09/17 06:53:16;;;;;;;;;;;19.20;99.90;;;;;;4929024;28;19932;-66
2023/09/17 06:55:42;;;;;;;;;;;19.30;99.90;;;;;;4917761;28;19933;-66
2023/09/17 06:58:08;;;;;;;;;;;19.40;99.90;;;;;;4928886;28;20022;-66
2023/09/17 07:00:34;;;;;;;;;;;19.60;99.90;;;;;;4934476;28;20002;-74
2023/09/17 07:03:00;;;;;;;;;;;19.80;99.90;;;;;;4929408;28;20042;-71
2023/09/17 07:05:25;;;;;;;;;;;20.00;99.90;;;;;;4930314;28;19934;-71
2023/09/17 07:07:51;;;;;;;;;;;20.10;99.90;;;;;;4930310;28;20276;-72
2023/09/17 07:10:17;;;;;;;;;;;20.30;99.90;;;;;;4932297;28;19943;-71
2023/09/17 07:12:43;;;;;;;;;;;20.40;99.90;;;;;;4935197;28;20048;-71
2023/09/17 07:15:10;;;;;;;;;;;20.40;99.90;;;;;;4933945;28;19955;-71
2023/09/17 07:17:36;;;;;;;;;;;20.50;99.90;;;;;;4929433;28;19957;-72
2023/09/17 07:20:02;;;;;;;;;;;20.70;99.90;;;;;;4931634;28;20320;-72
2023/09/17 07:22:28;;;;;;;;;;;20.90;99.90;;;;;;4936854;28;19972;-72
2023/09/17 07:24:58;;;;;;;;;;;21.10;99.90;;;;;;4928544;28;19996;-72
2023/09/17 07:27:29;;;;;;;;;;;21.30;99.90;;;;;;4952791;28;20495;-71
2023/09/17 07:29:56;;;;;;;;;;;21.50;99.90;;;;;;4924072;28;20022;-71
2023/09/17 07:32:22;;;;;;;;;;;21.60;99.90;;;;;;4939730;28;20053;-72
2023/09/17 07:34:48;;;;;;;;;;;21.60;99.90;;;;;;4934475;28;19973;-72
2023/09/17 07:37:13;;;;;;;;;;;21.70;99.90;;;;;;4936525;28;19964;-72
2023/09/17 07:39:39;;;;;;;;;;;21.60;99.90;;;;;;4939515;28;19933;-71
2023/09/17 07:42:05;;;;;;;;;;;21.50;99.90;;;;;;4939771;28;19933;-72
2023/09/17 07:44:31;;;;;;;;;;;21.60;99.90;;;;;;4940499;28;19934;-73
2023/09/17 07:46:56;;;;;;;;;;;21.80;99.90;;;;;;4935658;28;19978;-72
2023/09/17 07:49:26;;;;;;;;;;;21.90;99.90;;;;;;4940607;28;19942;-73
2023/09/17 07:51:52;;;;;;;;;;;22.00;99.90;;;;;;4937002;28;19960;-72
2023/09/17 07:54:17;;;;;;;;;;;22.10;99.90;;;;;;4943744;28;20070;-80
2023/09/17 07:56:43;;;;;;;;;;;22.10;99.90;;;;;;4944901;28;19954;-81
2023/09/17 07:59:09;;;;;;;;;;;22.20;99.90;;;;;;4956801;28;20031;-79
2023/09/17 08:01:34;;;;;;;;;;;22.20;99.90;;;;;;4943097;28;20024;-76
2023/09/17 08:04:00;;;;;;;;;;;22.20;99.90;;;;;;4938680;28;19968;-77
2023/09/17 08:06:25;;;;;;;;;;;22.10;99.90;;;;;;4937498;28;20149;-77
2023/09/17 08:08:51;;;;;;;;;;;22.00;99.90;;;;;;4941568;28;19920;-78
2023/09/17 08:11:19;;;;;;;;;;;22.20;99.90;;;;;;4933365;28;19920;-77
2023/09/17 08:13:44;;;;;;;;;;;22.40;99.90;;;;;;4936455;28;19936;-77
2023/09/17 08:16:10;;;;;;;;;;;22.70;99.90;;;;;;4932712;28;19957;-77
2023/09/17 08:18:35;;;;;;;;;;;22.90;99.90;;;;;;4934290;28;20013;-77
2023/09/17 08:21:01;;;;;;;;;;;22.90;99.90;;;;;;4933796;28;20031;-76
2023/09/17 08:23:26;;;;;;;;;;;23.10;99.90;;;;;;4934939;28;20429;-76
2023/09/17 08:25:52;;;;;;;;;;;23.20;99.90;;;;;;4940869;28;19984;-77
2023/09/17 08:28:18;;;;;;;;;;;23.20;99.90;;;;;;4937981;28;20438;-76
2023/09/17 08:30:43;;;;;;;;;;;23.00;99.90;;;;;;4935074;28;19931;-77
2023/09/17 08:33:10;;;;;;;;;;;22.90;99.90;;;;;;4934200;28;19931;-76
2023/09/17 08:35:36;;;;;;;;;;;23.00;99.90;;;;;;4941735;28;20377;-76
2023/09/17 08:38:02;;;;;;;;;;;23.00;99.90;;;;;;4928580;28;19946;-77
2023/09/17 08:40:30;;;;;;;;;;;23.10;99.90;;;;;;4938904;28;20462;-76
2023/09/17 08:42:56;;;;;;;;;;;23.20;99.90;;;;;;4938301;28;20026;-76
2023/09/17 08:45:22;;;;;;;;;;;23.30;99.90;;;;;;4934902;28;20462;-75
2023/09/17 08:47:47;;;;;;;;;;;23.40;99.90;;;;;;4927870;28;19980;-76
2023/09/17 08:50:13;;;;;;;;;;;23.40;99.90;;;;;;4926137;28;19977;-75
2023/09/17 08:52:44;;;;;;;;;;;23.50;99.90;;;;;;4937125;28;19931;-75
2023/09/17 08:55:11;;;;;;;;;;;23.70;99.90;;;;;;4935172;28;20392;-76
2023/09/17 08:57:37;;;;;;;;;;;23.70;99.90;;;;;;4931607;28;19981;-74
2023/09/17 09:00:15;;;;;;;;;;;23.70;99.90;;;;;;4938047;28;20028;-75
2023/09/17 09:02:44;;;;;;;;;;;23.80;99.90;;;;;;4932891;28;19940;-75
2023/09/17 09:05:14;;;;;;;;;;;23.80;99.90;;;;;;4933859;28;20032;-74
2023/09/17 09:07:42;;;;;;;;;;;23.90;99.90;;;;;;4936806;28;22130;-75
2023/09/17 09:10:08;;;;;;;;;;;24.00;99.90;;;;;;4929607;28;19935;-75
2023/09/17 09:12:34;;;;;;;;;;;24.10;99.90;;;;;;4931015;28;20299;-75
2023/09/17 09:15:00;;;;;;;;;;;24.10;99.90;;;;;;4939510;28;19929;-68
2023/09/17 09:17:26;;;;;;;;;;;24.10;99.90;;;;;;4935348;28;19959;-68
2023/09/17 09:19:51;;;;;;;;;;;24.10;99.90;;;;;;4930069;28;19940;-68
2023/09/17 09:22:17;;;;;;;;;;;24.20;99.90;;;;;;4934054;28;19932;-67
2023/09/17 09:24:46;;;;;;;;;;;24.30;99.90;;;;;;4939995;28;20388;-66
2023/09/17 09:27:12;;;;;;;;;;;24.30;99.90;;;;;;4938171;28;19933;-66
2023/09/17 09:29:42;;;;;;;;;;;24.30;99.90;;;;;;4940919;28;20382;-67
2023/09/17 09:32:09;;;;;;;;;;;24.20;99.90;;;;;;4931617;28;19934;-67
2023/09/17 09:34:36;;;;;;;;;;;24.20;99.90;;;;;;4930967;28;19970;-67
2023/09/17 09:37:03;;;;;;;;;;;24.20;99.90;;;;;;4931916;28;19958;-67
2023/09/17 09:39:29;;;;;;;;;;;24.20;99.90;;;;;;4923744;28;20464;-67
2023/09/17 09:41:55;;;;;;;;;;;24.10;99.90;;;;;;4932535;28;20013;-67
2023/09/17 09:44:24;;;;;;;;;;;24.10;99.90;;;;;;4916099;28;19922;-67
2023/09/17 09:46:55;;;;;;;;;;;24.00;99.90;;;;;;4936863;28;19971;-67
2023/09/17 09:49:21;;;;;;;;;;;24.00;99.90;;;;;;4931166;28;19943;-67
2023/09/17 09:51:47;;;;;;;;;;;24.00;99.90;;;;;;4927097;28;19937;-74
2023/09/17 09:54:13;;;;;;;;;;;24.10;99.90;;;;;;4934073;28;19935;-75
2023/09/17 09:56:39;;;;;;;;;;;24.10;99.90;;;;;;4933241;28;20029;-73
2023/09/17 09:59:06;;;;;;;;;;;24.30;99.90;;;;;;4931995;28;20394;-74
2023/09/17 10:01:35;;;;;;;;;;;24.50;99.90;;;;;;4936036;28;19971;-74
2023/09/17 10:04:01;;;;;;;;;;;24.70;99.90;;;;;;4934944;28;20304;-74
2023/09/17 10:06:30;;;;;;;;;;;24.90;99.90;;;;;;4937754;28;20086;-74
2023/09/17 10:08:55;;;;;;;;;;;25.00;99.90;;;;;;4934474;28;19940;-75
2023/09/17 10:11:22;;;;;;;;;;;25.00;99.90;;;;;;4935839;28;19977;-74
2023/09/17 10:13:48;;;;;;;;;;;24.90;99.90;;;;;;4940746;28;20421;-74
2023/09/17 10:16:14;;;;;;;;;;;24.90;99.90;;;;;;4934007;28;19998;-75
2023/09/17 10:18:42;;;;;;;;;;;24.90;99.90;;;;;;4936345;28;20380;-74
2023/09/17 10:21:09;;;;;;;;;;;24.80;99.90;;;;;;4936875;28;19937;-74
2023/09/17 10:23:35;;;;;;;;;;;24.80;99.90;;;;;;4936923;28;19940;-74
2023/09/17 10:26:02;;;;;;;;;;;24.80;99.90;;;;;;4925472;28;19935;-75
2023/09/17 10:28:28;;;;;;;;;;;24.80;99.90;;;;;;4936779;28;19927;-74
2023/09/17 10:30:55;;;;;;;;;;;24.70;99.90;;;;;;4936479;28;20090;-74
2023/09/17 10:33:21;;;;;;;;;;;24.60;99.90;;;;;;4935674;28;19974;-74
2023/09/17 10:35:47;;;;;;;;;;;24.60;99.90;;;;;;4936236;28;19940;-74
2023/09/17 10:38:14;;;;;;;;;;;24.60;99.90;;;;;;4935572;28;19925;-75
2023/09/17 10:40:40;;;;;;;;;;;24.70;99.90;;;;;;4933612;28;19933;-74
2023/09/17 10:43:07;;;;;;;;;;;24.80;99.90;;;;;;4937218;28;20739;-74
2023/09/17 10:45:35;;;;;;;;;;;25.00;99.90;;;;;;4936279;28;19927;-73
2023/09/17 10:48:01;;;;;;;;;;;25.20;99.90;;;;;;4933046;28;20454;-71
2023/09/17 10:50:30;;;;;;;;;;;25.40;99.90;;;;;;4922870;28;20206;-73
2023/09/17 10:52:55;;;;;;;;;;;25.30;99.90;;;;;;4930940;28;20385;-72
2023/09/17 10:55:22;;;;;;;;;;;25.20;99.90;;;;;;4908816;28;19925;-78
2023/09/17 10:57:49;;;;;;;;;;;25.10;99.90;;;;;;4924357;28;20176;-80
2023/09/17 11:00:18;;;;;;;;;;;25.00;99.90;;;;;;4925340;28;19952;-81
2023/09/17 11:02:50;;;;;;;;;;;25.00;99.90;;;;;;4934791;28;19956;-81
2023/09/17 11:05:18;;;;;;;;;;;24.90;99.90;;;;;;4948594;28;19936;-79
2023/09/17 11:07:44;;;;;;;;;;;24.90;99.90;;;;;;4914365;28;19944;-80
2023/09/17 11:10:11;;;;;;;;;;;25.00;99.90;;;;;;4935252;28;20532;-79
2023/09/17 11:12:36;;;;;;;;;;;25.00;99.90;;;;;;4934790;28;19932;-80
2023/09/17 11:15:02;;;;;;;;;;;25.10;99.90;;;;;;4928306;28;20674;-79
2023/09/17 11:17:31;;;;;;;;;;;25.00;99.90;;;;;;4933913;28;20027;-81
2023/09/17 11:19:57;;;;;;;;;;;24.90;99.90;;;;;;4937527;28;20305;-77
2023/09/17 11:22:23;;;;;;;;;;;24.80;99.90;;;;;;4931024;28;19922;-81
2023/09/17 11:24:49;;;;;;;;;;;24.80;99.90;;;;;;4924888;28;19937;-79
2023/09/17 11:27:18;;;;;;;;;;;24.90;99.90;;;;;;4934666;28;19980;-78
2023/09/17 11:29:45;;;;;;;;;;;24.90;99.90;;;;;;4912998;28;19932;-76
2023/09/17 11:32:12;;;;;;;;;;;24.90;99.90;;;;;;4923414;28;19937;-76
2023/09/17 11:34:40;;;;;;;;;;;24.90;99.90;;;;;;4932331;28;19941;-80
2023/09/17 11:37:06;;;;;;;;;;;25.00;99.90;;;;;;4934661;28;19963;-67
2023/09/17 11:39:33;;;;;;;;;;;25.20;99.90;;;;;;4932603;28;19948;-67
2023/09/17 11:42:03;;;;;;;;;;;25.40;99.90;;;;;;4928764;28;20027;-67
2023/09/17 11:44:36;;;;;;;;;;;25.30;99.90;;;;;;4924096;28;20099;-68
2023/09/17 11:47:03;;;;;;;;;;;25.30;99.90;;;;;;4931389;28;19972;-69
2023/09/17 11:49:28;;;;;;;;;;;25.30;99.90;;;;;;4931812;28;19960;-71
2023/09/17 11:51:57;;;;;;;;;;;25.30;99.90;;;;;;4924430;28;19938;-70
2023/09/17 11:54:25;;;;;;;;;;;25.30;99.90;;;;;;4931491;28;19932;-69
2023/09/17 11:56:55;;;;;;;;;;;25.40;99.90;;;;;;4933272;28;19960;-69
2023/09/17 11:59:21;;;;;;;;;;;25.30;99.90;;;;;;4929159;28;19937;-68
2023/09/17 12:01:47;;;;;;;;;;;25.30;99.90;;;;;;4928485;28;20423;-69
2023/09/17 12:04:13;;;;;;;;;;;25.20;99.90;;;;;;4927403;28;20010;-70
2023/09/17 12:06:43;;;;;;;;;;;25.20;99.90;;;;;;4926602;28;19933;-69
2023/09/17 12:09:18;;;;;;;;;;;25.10;99.90;;;;;;4918481;28;19968;-70
2023/09/17 12:11:46;;;;;;;;;;;25.10;99.90;;;;;;4928622;28;19932;-68
2023/09/17 12:14:12;;;;;;;;;;;25.20;99.90;;;;;;4929787;28;20008;-67
2023/09/17 12:16:38;;;;;;;;;;;25.30;99.90;;;;;;4931328;28;19964;-67
2023/09/17 12:19:03;;;;;;;;;;;25.40;99.90;;;;;;4922788;28;19982;-67
2023/09/17 12:21:31;;;;;;;;;;;25.70;99.90;;;;;;4924489;28;19919;-69
2023/09/17 12:23:58;;;;;;;;;;;25.90;99.90;;;;;;4918018;28;20006;-68
2023/09/17 12:26:23;;;;;;;;;;;26.00;99.90;;;;;;4923697;28;20456;-68
2023/09/17 12:28:49;;;;;;;;;;;26.00;99.90;;;;;;4928641;28;19944;-68
2023/09/17 12:31:15;;;;;;;;;;;26.10;99.90;;;;;;4929973;28;19939;-69
2023/09/17 12:33:43;;;;;;;;;;;26.30;99.90;;;;;;4932765;28;19940;-69
2023/09/17 12:36:10;;;;;;;;;;;26.40;99.90;;;;;;4931344;28;20056;-69
2023/09/17 12:38:36;;;;;;;;;;;26.60;99.90;;;;;;4935484;28;19973;-68
2023/09/17 12:41:02;;;;;;;;;;;26.60;99.90;;;;;;4929512;28;20101;-68
2023/09/17 12:43:27;;;;;;;;;;;26.60;99.90;;;;;;4931710;28;19934;-68
2023/09/17 12:45:53;;;;;;;;;;;26.60;99.90;;;;;;4932870;28;19937;-69
2023/09/17 12:48:20;;;;;;;;;;;26.60;99.90;;;;;;4929578;28;20402;-69
2023/09/17 12:50:46;;;;;;;;;;;26.80;99.90;;;;;;4935342;28;20426;-76
2023/09/17 12:53:12;;;;;;;;;;;26.80;99.90;;;;;;4934408;28;19935;-77
2023/09/17 12:55:38;;;;;;;;;;;26.80;99.90;;;;;;4935380;28;20044;-76
2023/09/17 12:58:07;;;;;;;;;;;26.70;99.90;;;;;;4931921;28;19964;-77
2023/09/17 13:00:33;;;;;;;;;;;26.60;99.90;;;;;;4937861;28;20909;-77
2023/09/17 13:03:18;;;;;;;;;;;26.60;99.90;;;;;;4933544;28;20384;-78
2023/09/17 13:05:44;;;;;;;;;;;26.50;99.90;;;;;;4934179;28;19988;-77
2023/09/17 13:08:10;;;;;;;;;;;26.30;99.90;;;;;;4932989;28;19930;-77
2023/09/17 13:10:39;;;;;;;;;;;26.20;99.90;;;;;;4931511;28;20016;-77
2023/09/17 13:13:05;;;;;;;;;;;26.10;99.90;;;;;;4934842;28;19929;-79
2023/09/17 13:15:30;;;;;;;;;;;26.00;99.90;;;;;;4931002;28;20243;-76
2023/09/17 13:17:57;;;;;;;;;;;26.00;99.90;;;;;;4936111;28;19960;-76
2023/09/17 13:20:23;;;;;;;;;;;26.00;99.90;;;;;;4934028;28;19930;-77
2023/09/17 13:22:50;;;;;;;;;;;26.10;99.90;;;;;;4935551;28;19930;-77
2023/09/17 13:25:16;;;;;;;;;;;26.30;99.90;;;;;;4946460;28;19959;-77
2023/09/17 13:27:43;;;;;;;;;;;26.50;99.90;;;;;;4934514;28;19982;-76
2023/09/17 13:30:09;;;;;;;;;;;26.60;99.90;;;;;;4931906;28;19952;-76
2023/09/17 13:32:35;;;;;;;;;;;26.80;99.90;;;;;;4930841;28;19942;-74
2023/09/17 13:35:03;;;;;;;;;;;26.90;99.90;;;;;;4932254;28;20038;-77
2023/09/17 13:37:29;;;;;;;;;;;27.00;99.90;;;;;;4930442;28;20037;-76
2023/09/17 13:39:55;;;;;;;;;;;27.10;99.90;;;;;;4935146;28;19936;-76
2023/09/17 13:42:21;;;;;;;;;;;27.10;99.90;;;;;;4934978;28;19938;-76
2023/09/17 13:44:46;;;;;;;;;;;27.10;99.90;;;;;;4931778;28;19940;-70
2023/09/17 13:47:12;;;;;;;;;;;27.20;99.90;;;;;;4930836;28;19944;-70
2023/09/17 13:49:38;;;;;;;;;;;27.30;99.90;;;;;;4931683;28;20581;-71
2023/09/17 13:52:05;;;;;;;;;;;27.50;99.90;;;;;;4929664;28;20019;-70
2023/09/17 13:54:31;;;;;;;;;;;27.60;99.90;;;;;;4929392;28;19982;-69
2023/09/17 13:56:57;;;;;;;;;;;27.50;99.90;;;;;;4929185;28;20053;-69
2023/09/17 13:59:22;;;;;;;;;;;27.40;99.90;;;;;;4934689;28;19996;-69
2023/09/17 14:01:49;;;;;;;;;;;27.40;99.90;;;;;;4932371;28;20391;-70
2023/09/17 14:04:19;;;;;;;;;;;27.40;99.90;;;;;;4929829;28;19931;-70
2023/09/17 14:06:44;;;;;;;;;;;27.40;99.90;;;;;;4931482;28;19932;-70
2023/09/17 14:09:10;;;;;;;;;;;27.20;99.90;;;;;;4934032;28;19982;-70
2023/09/17 14:11:37;;;;;;;;;;;27.20;99.90;;;;;;4930236;28;20026;-69